createdAt,value
2023-04-01T00:01:27.220Z,86.66
2023-04-01T00:03:53.677Z,86.75
2023-04-01T00:06:20.030Z,86.85
2023-04-01T00:08:46.345Z,86.94
2023-04-01T00:11:12.677Z,87.04
2023-04-01T00:13:39.085Z,87.18
2023-04-01T00:16:17.649Z,87.33
2023-04-01T00:18:31.818Z,87.48
2023-04-01T00:20:58.176Z,87.60
2023-04-01T00:23:24.531Z,87.72
2023-04-01T00:25:50.996Z,87.79
2023-04-01T00:28:17.278Z,87.94
2023-04-01T00:30:43.621Z,88.04
2023-04-01T00:33:10.145Z,88.06
2023-04-01T00:35:36.507Z,88.10
2023-04-01T00:38:02.833Z,88.18
2023-04-01T00:40:29.232Z,88.25
2023-04-01T00:42:55.573Z,88.32
2023-04-01T00:45:21.905Z,88.40
2023-04-01T00:47:48.340Z,88.52
2023-04-01T00:50:14.717Z,88.67
2023-04-01T00:52:41.003Z,88.78
2023-04-01T00:55:07.398Z,88.87
2023-04-01T00:57:33.725Z,88.93
2023-04-01T01:00:00.074Z,89.09
2023-04-01T01:02:26.463Z,89.16
2023-04-01T01:04:52.732Z,89.23
2023-04-01T01:07:19.058Z,89.27
2023-04-01T01:09:45.480Z,89.39
2023-04-01T01:12:11.799Z,89.51
2023-04-01T01:14:38.164Z,89.62
2023-04-01T01:17:04.523Z,89.75
2023-04-01T01:19:30.916Z,89.91
2023-04-01T01:21:57.207Z,90.05
2023-04-01T01:24:23.627Z,90.21
2023-04-01T01:26:49.996Z,90.38
2023-04-01T01:29:16.326Z,90.53
2023-04-01T01:31:42.756Z,90.74
2023-04-01T01:34:08.992Z,90.85
2023-04-01T01:36:35.357Z,90.95
2023-04-01T01:39:01.704Z,91.00
2023-04-01T01:41:28.075Z,91.06
2023-04-01T01:43:54.413Z,91.17
2023-04-01T01:46:20.826Z,91.28
2023-04-01T01:48:47.201Z,91.47
2023-04-01T01:51:13.547Z,91.55
2023-04-01T01:53:39.891Z,91.69
2023-04-01T01:56:06.233Z,91.77
2023-04-01T01:58:32.563Z,91.93
2023-04-01T02:00:58.925Z,92.01
2023-04-01T02:03:25.353Z,92.09
2023-04-01T02:05:51.924Z,92.21
2023-04-01T02:08:18.271Z,92.34
2023-04-01T02:10:44.636Z,92.43
2023-04-01T02:13:11.014Z,92.53
2023-04-01T02:15:37.350Z,92.55
2023-04-01T02:18:03.754Z,92.54
2023-04-01T02:20:30.055Z,92.55
2023-04-01T02:22:56.403Z,92.54
2023-04-01T02:25:22.752Z,92.57
2023-04-01T02:27:49.139Z,92.56
2023-04-01T02:30:15.519Z,92.58
2023-04-01T02:32:41.911Z,92.62
2023-04-01T02:35:08.244Z,92.63
2023-04-01T02:37:36.310Z,92.62
2023-04-01T02:40:00.943Z,92.66
2023-04-01T02:42:27.347Z,92.63
2023-04-01T02:44:53.730Z,92.59
2023-04-01T02:47:20.094Z,92.59
2023-04-01T02:49:46.432Z,92.58
2023-04-01T02:52:12.802Z,92.61
2023-04-01T02:54:39.159Z,92.61
2023-04-01T02:57:05.523Z,92.63
2023-04-01T02:59:31.882Z,92.65
2023-04-01T03:01:58.268Z,92.70
2023-04-01T03:04:24.591Z,92.75
2023-04-01T03:06:50.913Z,92.86
2023-04-01T03:09:17.244Z,92.95
2023-04-01T03:11:43.564Z,92.99
2023-04-01T03:14:10.012Z,93.07
2023-04-01T03:16:36.431Z,93.14
2023-04-01T03:19:02.699Z,93.27
2023-04-01T03:21:29.062Z,93.33
2023-04-01T03:23:55.442Z,93.44
2023-04-01T03:26:21.768Z,93.54
2023-04-01T03:28:48.165Z,93.67
2023-04-01T03:31:14.542Z,93.75
2023-04-01T03:33:40.975Z,93.91
2023-04-01T03:36:07.424Z,93.95
2023-04-01T03:38:33.675Z,94.00
2023-04-01T03:41:00.007Z,94.06
2023-04-01T03:43:26.346Z,94.04
2023-04-01T03:45:52.747Z,94.10
2023-04-01T03:48:19.098Z,94.08
2023-04-01T03:50:45.496Z,94.06
2023-04-01T03:53:11.839Z,93.98
2023-04-01T03:55:38.187Z,93.92
2023-04-01T03:58:04.540Z,93.90
2023-04-01T04:00:30.879Z,93.93
2023-04-01T04:02:57.332Z,93.91
2023-04-01T04:05:23.601Z,93.81
2023-04-01T04:07:50.003Z,93.81
2023-04-01T04:10:16.344Z,93.89
2023-04-01T04:12:42.745Z,93.99
2023-04-01T04:15:09.083Z,94.11
2023-04-01T04:17:35.461Z,94.06
2023-04-01T04:20:01.750Z,94.06
2023-04-01T04:22:28.391Z,94.07
2023-04-01T04:24:54.708Z,94.18
2023-04-01T04:27:21.053Z,94.21
2023-04-01T04:29:47.673Z,94.32
2023-04-01T04:32:14.005Z,94.34
2023-04-01T04:34:40.330Z,94.40
2023-04-01T04:37:06.711Z,94.49
2023-04-01T04:39:33.073Z,94.57
2023-04-01T04:41:59.412Z,94.71
2023-04-01T04:44:25.736Z,94.71
2023-04-01T04:46:52.329Z,94.68
2023-04-01T04:49:18.598Z,94.68
2023-04-01T04:51:44.946Z,94.77
2023-04-01T04:54:11.270Z,94.85
2023-04-01T04:56:37.665Z,94.94
2023-04-01T04:59:04.097Z,95.01
2023-04-01T05:01:30.545Z,95.08
2023-04-01T05:03:56.801Z,95.14
2023-04-01T05:06:23.628Z,95.24
2023-04-01T05:08:49.537Z,95.24
2023-04-01T05:11:16.018Z,95.29
2023-04-01T05:13:42.366Z,95.28
2023-04-01T05:16:08.834Z,95.29
2023-04-01T05:18:35.119Z,95.31
2023-04-01T05:21:01.510Z,95.34
2023-04-01T05:23:28.085Z,95.33
2023-04-01T05:25:54.441Z,95.33
2023-04-01T05:28:20.795Z,95.36
2023-04-01T05:30:47.262Z,95.22
2023-04-01T05:33:13.560Z,95.08
2023-04-01T05:35:40.052Z,94.91
2023-04-01T05:38:08.063Z,94.67
2023-04-01T05:40:32.742Z,94.06
2023-04-01T05:42:59.083Z,93.33
2023-04-01T05:45:25.680Z,92.86
2023-04-01T05:47:52.057Z,92.26
2023-04-01T05:50:18.388Z,91.43
2023-04-01T05:52:44.751Z,90.25
2023-04-01T05:55:11.140Z,88.90
2023-04-01T05:57:38.144Z,87.46
2023-04-01T06:00:04.524Z,86.12
2023-04-01T06:02:31.178Z,84.67
2023-04-01T06:04:57.564Z,83.56
2023-04-01T06:07:23.857Z,82.44
2023-04-01T06:09:50.336Z,81.72
2023-04-01T06:12:16.743Z,81.29
2023-04-01T06:14:43.148Z,81.16
2023-04-01T06:17:09.488Z,80.95
2023-04-01T06:19:35.912Z,80.56
2023-04-01T06:22:02.250Z,80.31
2023-04-01T06:24:28.657Z,80.34
2023-04-01T06:26:55.310Z,80.40
2023-04-01T06:29:21.691Z,80.57
2023-04-01T06:31:48.166Z,80.70
2023-04-01T06:34:14.566Z,80.79
2023-04-01T06:36:40.997Z,76.46
2023-04-01T06:39:09.582Z,70.17
2023-04-01T06:41:33.661Z,66.04
2023-04-01T06:44:00.038Z,64.07
2023-04-01T06:46:26.482Z,62.20
2023-04-01T06:48:52.789Z,61.36
2023-04-01T06:51:19.164Z,60.91
2023-04-01T06:53:45.541Z,60.43
2023-04-01T06:56:11.907Z,60.22
2023-04-01T06:58:38.296Z,60.04
2023-04-01T07:01:04.612Z,59.92
2023-04-01T07:03:31.016Z,59.87
2023-04-01T07:05:57.332Z,60.04
2023-04-01T07:08:23.761Z,59.57
2023-04-01T07:10:50.141Z,65.67
2023-04-01T07:13:16.734Z,70.52
2023-04-01T07:15:42.981Z,65.07
2023-04-01T07:18:09.350Z,62.02
2023-04-01T07:20:35.670Z,61.00
2023-04-01T07:23:02.072Z,60.59
2023-04-01T07:25:28.374Z,60.48
2023-04-01T07:27:54.757Z,60.26
2023-04-01T07:30:21.076Z,60.20
2023-04-01T07:32:47.460Z,60.26
2023-04-01T07:35:13.957Z,60.23
2023-04-01T07:37:40.313Z,60.05
2023-04-01T07:40:06.694Z,59.84
2023-04-01T07:42:33.621Z,60.06
2023-04-01T07:45:00.056Z,60.04
2023-04-01T07:47:26.383Z,59.83
2023-04-01T07:49:52.742Z,59.21
2023-04-01T07:52:19.222Z,59.02
2023-04-01T07:54:45.542Z,58.73
2023-04-01T07:57:12.007Z,58.85
2023-04-01T07:59:38.348Z,58.35
2023-04-01T08:02:04.701Z,58.12
2023-04-01T08:04:31.077Z,58.28
2023-04-01T08:06:57.501Z,58.19
2023-04-01T08:09:23.838Z,57.79
2023-04-01T08:11:50.182Z,58.00
2023-04-01T08:14:16.578Z,57.95
2023-04-01T08:16:43.046Z,58.12
2023-04-01T08:19:09.283Z,57.74
2023-04-01T08:21:35.682Z,57.70
2023-04-01T08:24:02.070Z,57.77
2023-04-01T08:26:28.426Z,57.75
2023-04-01T08:28:54.742Z,57.46
2023-04-01T08:31:21.124Z,57.17
2023-04-01T08:33:47.410Z,56.97
2023-04-01T08:36:14.022Z,56.73
2023-04-01T08:38:40.269Z,56.42
2023-04-01T08:41:12.652Z,56.28
2023-04-01T08:43:39.313Z,56.01
2023-04-01T08:46:06.012Z,55.71
2023-04-01T08:48:32.320Z,55.55
2023-04-01T08:50:58.775Z,55.27
2023-04-01T08:53:25.078Z,55.18
2023-04-01T08:55:51.460Z,54.98
2023-04-01T08:58:18.095Z,54.08
2023-04-01T09:00:48.881Z,53.13
2023-04-01T09:03:15.438Z,52.54
2023-04-01T09:05:42.579Z,52.06
2023-04-01T09:08:08.974Z,51.67
2023-04-01T09:10:35.367Z,51.05
2023-04-01T09:13:01.803Z,50.49
2023-04-01T09:15:28.308Z,50.06
2023-04-01T09:17:54.628Z,49.38
2023-04-01T09:20:21.032Z,48.92
2023-04-01T09:22:49.740Z,48.50
2023-04-01T09:25:16.932Z,48.54
2023-04-01T09:27:45.992Z,48.18
2023-04-01T09:30:12.321Z,48.38
2023-04-01T09:32:38.765Z,48.17
2023-04-01T09:35:05.127Z,48.80
2023-04-01T09:37:31.467Z,54.03
2023-04-01T09:39:57.858Z,52.62
2023-04-01T09:42:24.227Z,52.08
2023-04-01T09:44:50.559Z,50.97
2023-04-01T09:47:16.930Z,51.00
2023-04-01T09:49:43.308Z,51.03
2023-04-01T09:52:09.676Z,53.69
2023-04-01T09:54:36.108Z,52.27
2023-04-01T09:57:02.399Z,52.36
2023-04-01T09:59:28.720Z,51.56
2023-04-01T10:01:55.107Z,51.20
2023-04-01T10:04:21.531Z,50.66
2023-04-01T10:06:47.818Z,50.62
2023-04-01T10:09:14.201Z,50.09
2023-04-01T10:11:40.604Z,50.25
2023-04-01T10:14:06.969Z,50.51
2023-04-01T10:16:33.428Z,50.89
2023-04-01T10:18:59.682Z,50.12
2023-04-01T10:21:26.094Z,50.30
2023-04-01T10:23:52.443Z,49.74
2023-04-01T10:26:18.776Z,49.17
2023-04-01T10:28:45.132Z,49.56
2023-04-01T10:31:11.485Z,52.16
2023-04-01T10:33:37.883Z,51.48
2023-04-01T10:36:04.255Z,51.70
2023-04-01T10:38:30.591Z,51.25
2023-04-01T10:40:57.009Z,51.65
2023-04-01T10:43:23.373Z,51.20
2023-04-01T10:45:49.728Z,50.40
2023-04-01T10:48:16.342Z,50.44
2023-04-01T10:50:42.728Z,49.75
2023-04-01T10:53:09.106Z,50.60
2023-04-01T10:55:35.540Z,50.63
2023-04-01T10:58:01.832Z,51.10
2023-04-01T11:00:28.174Z,51.55
2023-04-01T11:02:54.553Z,51.44
2023-04-01T11:05:21.178Z,50.58
2023-04-01T11:07:55.840Z,50.62
2023-04-01T11:10:13.610Z,50.93
2023-04-01T11:12:39.976Z,50.08
2023-04-01T11:15:06.378Z,50.50
2023-04-01T11:17:32.795Z,50.31
2023-04-01T11:19:59.110Z,50.40
2023-04-01T11:22:25.562Z,50.58
2023-04-01T11:24:51.963Z,51.09
2023-04-01T11:27:18.383Z,51.20
2023-04-01T11:29:56.599Z,51.07
2023-04-01T11:32:11.092Z,51.14
2023-04-01T11:34:37.445Z,51.45
2023-04-01T11:37:03.824Z,51.02
2023-04-01T11:39:30.145Z,50.31
2023-04-01T11:41:56.527Z,50.19
2023-04-01T11:44:22.848Z,51.28
2023-04-01T11:46:49.219Z,52.34
2023-04-01T11:49:15.553Z,53.39
2023-04-01T11:51:41.956Z,54.44
2023-04-01T11:54:08.337Z,55.87
2023-04-01T11:56:34.673Z,57.27
2023-04-01T11:59:01.003Z,58.60
2023-04-01T12:01:27.422Z,59.79
2023-04-01T12:03:53.976Z,60.68
2023-04-01T12:06:20.092Z,61.38
2023-04-01T12:08:46.466Z,62.16
2023-04-01T12:11:12.902Z,62.80
2023-04-01T12:13:39.350Z,63.65
2023-04-01T12:16:05.726Z,64.58
2023-04-01T12:18:32.294Z,65.43
2023-04-01T12:20:58.678Z,66.22
2023-04-01T12:23:24.982Z,66.87
2023-04-01T12:25:51.401Z,67.50
2023-04-01T12:28:17.694Z,67.74
2023-04-01T12:30:44.056Z,67.87
2023-04-01T12:33:10.425Z,68.08
2023-04-01T12:35:36.980Z,68.06
2023-04-01T12:38:03.298Z,68.21
2023-04-01T12:40:29.647Z,68.04
2023-04-01T12:42:55.963Z,68.03
2023-04-01T12:45:22.339Z,68.23
2023-04-01T12:47:48.700Z,68.18
2023-04-01T12:50:15.072Z,68.48
2023-04-01T12:52:41.502Z,68.83
2023-04-01T12:55:07.847Z,68.99
2023-04-01T12:57:34.328Z,68.95
2023-04-01T13:00:00.968Z,69.31
2023-04-01T13:02:27.281Z,69.09
2023-04-01T13:04:53.613Z,69.18
2023-04-01T13:07:20.042Z,69.56
2023-04-01T13:09:48.677Z,69.29
2023-04-01T13:12:12.765Z,69.17
2023-04-01T13:14:39.118Z,68.89
2023-04-01T13:17:05.454Z,69.01
2023-04-01T13:19:31.771Z,69.46
2023-04-01T13:21:58.154Z,70.11
2023-04-01T13:24:24.525Z,70.38
2023-04-01T13:26:50.871Z,70.83
2023-04-01T13:29:17.190Z,70.98
2023-04-01T13:31:43.649Z,70.66
2023-04-01T13:34:09.937Z,70.67
2023-04-01T13:36:36.277Z,70.96
2023-04-01T13:39:02.651Z,70.97
2023-04-01T13:41:28.995Z,71.14
2023-04-01T13:43:55.481Z,71.05
2023-04-01T13:46:21.863Z,70.80
2023-04-01T13:48:48.187Z,70.35
2023-04-01T13:51:14.592Z,70.08
2023-04-01T13:53:40.942Z,69.98
2023-04-01T13:56:07.391Z,69.71
2023-04-01T13:58:33.702Z,69.93
2023-04-01T14:01:00.165Z,70.24
2023-04-01T14:03:26.506Z,70.04
2023-04-01T14:05:52.843Z,69.83
2023-04-01T14:08:19.186Z,69.40
2023-04-01T14:10:45.584Z,68.84
2023-04-01T14:13:11.933Z,68.90
2023-04-01T14:15:38.276Z,69.35
2023-04-01T14:18:04.664Z,69.25
2023-04-01T14:20:31.013Z,69.01
2023-04-01T14:22:57.330Z,68.98
2023-04-01T14:25:23.747Z,68.54
2023-04-01T14:27:50.120Z,68.41
2023-04-01T14:30:16.466Z,75.23
2023-04-01T14:32:42.834Z,74.69
2023-04-01T14:35:09.132Z,71.82
2023-04-01T14:37:35.510Z,70.66
2023-04-01T14:40:01.947Z,70.71
2023-04-01T14:42:28.217Z,74.43
2023-04-01T14:44:55.627Z,69.72
2023-04-01T14:47:21.954Z,66.84
2023-04-01T14:49:48.317Z,65.77
2023-04-01T14:52:14.727Z,64.83
2023-04-01T14:54:41.039Z,64.29
2023-04-01T14:57:07.450Z,63.32
2023-04-01T14:59:33.865Z,63.37
2023-04-01T15:02:00.208Z,63.33
2023-04-01T15:04:26.648Z,63.69
2023-04-01T15:06:53.948Z,63.47
2023-04-01T15:09:20.357Z,63.57
2023-04-01T15:11:46.709Z,63.65
2023-04-01T15:14:13.191Z,63.95
2023-04-01T15:16:39.602Z,63.82
2023-04-01T15:19:06.140Z,63.93
2023-04-01T15:21:32.494Z,63.50
2023-04-01T15:23:58.916Z,63.98
2023-04-01T15:26:25.241Z,64.04
2023-04-01T15:28:51.740Z,64.11
2023-04-01T15:31:18.099Z,64.34
2023-04-01T15:33:44.441Z,64.17
2023-04-01T15:36:10.977Z,64.49
2023-04-01T15:38:37.291Z,64.61
2023-04-01T15:41:03.618Z,64.84
2023-04-01T15:43:30.046Z,64.94
2023-04-01T15:45:56.404Z,64.84
2023-04-01T15:48:22.777Z,65.19
2023-04-01T15:50:49.132Z,65.49
2023-04-01T15:53:15.442Z,65.73
2023-04-01T15:55:41.827Z,66.16
2023-04-01T15:58:08.194Z,67.04
2023-04-01T16:00:34.528Z,66.87
2023-04-01T16:03:00.985Z,67.00
2023-04-01T16:05:29.752Z,67.44
2023-04-01T16:07:56.117Z,67.93
2023-04-01T16:10:22.462Z,68.51
2023-04-01T16:12:48.802Z,69.19
2023-04-01T16:15:15.326Z,69.93
2023-04-01T16:17:41.541Z,70.72
2023-04-01T16:20:07.891Z,71.62
2023-04-01T16:22:34.286Z,72.50
2023-04-01T16:25:00.646Z,73.41
2023-04-01T16:27:26.974Z,74.33
2023-04-01T16:29:53.297Z,73.55
2023-04-01T16:32:19.645Z,70.76
2023-04-01T16:34:46.009Z,69.36
2023-04-01T16:37:12.410Z,68.96
2023-04-01T16:39:38.724Z,67.95
2023-04-01T16:42:05.286Z,67.66
2023-04-01T16:44:31.570Z,67.39
2023-04-01T16:46:57.969Z,67.52
2023-04-01T16:49:24.311Z,68.30
2023-04-01T16:51:50.735Z,68.21
2023-04-01T16:54:17.105Z,67.93
2023-04-01T16:56:43.441Z,67.41
2023-04-01T16:59:09.904Z,67.07
2023-04-01T17:01:36.327Z,66.67
2023-04-01T17:04:02.656Z,66.28
2023-04-01T17:06:29.438Z,66.25
2023-04-01T17:08:55.399Z,66.06
2023-04-01T17:11:21.764Z,66.00
2023-04-01T17:13:48.260Z,65.85
2023-04-01T17:16:14.624Z,65.46
2023-04-01T17:18:40.975Z,65.19
2023-04-01T17:21:07.317Z,65.04
2023-04-01T17:23:33.710Z,64.98
2023-04-01T17:26:00.151Z,65.21
2023-04-01T17:28:26.436Z,65.00
2023-04-01T17:30:52.827Z,64.83
2023-04-01T17:33:19.254Z,64.63
2023-04-01T17:35:45.671Z,64.86
2023-04-01T17:38:14.452Z,64.94
2023-04-01T17:40:40.810Z,65.04
2023-04-01T17:43:07.203Z,65.33
2023-04-01T17:45:33.592Z,65.59
2023-04-01T17:47:59.970Z,65.62
2023-04-01T17:50:26.290Z,65.63
2023-04-01T17:52:52.649Z,65.66
2023-04-01T17:55:19.023Z,65.76
2023-04-01T17:57:45.440Z,66.02
2023-04-01T18:00:11.786Z,66.02
2023-04-01T18:02:38.236Z,65.82
2023-04-01T18:05:04.506Z,65.90
2023-04-01T18:07:30.968Z,65.92
2023-04-01T18:09:57.305Z,65.73
2023-04-01T18:12:23.659Z,65.51
2023-04-01T18:14:50.002Z,65.69
2023-04-01T18:17:16.434Z,65.67
2023-04-01T18:19:42.785Z,65.83
2023-04-01T18:22:09.147Z,65.96
2023-04-01T18:24:35.484Z,65.75
2023-04-01T18:27:01.849Z,65.70
2023-04-01T18:29:28.205Z,65.69
2023-04-01T18:31:54.613Z,65.69
2023-04-01T18:34:20.957Z,65.90
2023-04-01T18:36:47.313Z,65.94
2023-04-01T18:39:13.988Z,65.85
2023-04-01T18:41:40.296Z,65.89
2023-04-01T18:44:06.651Z,66.04
2023-04-01T18:46:33.023Z,66.09
2023-04-01T18:48:59.422Z,66.08
2023-04-01T18:51:25.806Z,66.34
2023-04-01T18:53:52.156Z,66.40
2023-04-01T18:56:18.517Z,66.56
2023-04-01T18:58:44.894Z,66.87
2023-04-01T19:01:11.240Z,66.59
2023-04-01T19:03:37.800Z,66.50
2023-04-01T19:06:03.934Z,66.71
2023-04-01T19:08:30.458Z,66.96
2023-04-01T19:10:56.749Z,66.94
2023-04-01T19:13:27.611Z,66.92
2023-04-01T19:15:55.003Z,66.92
2023-04-01T19:18:21.298Z,67.13
2023-04-01T19:20:48.834Z,67.25
2023-04-01T19:23:16.280Z,67.15
2023-04-01T19:25:43.493Z,67.15
2023-04-01T19:28:09.878Z,67.14
2023-04-01T19:30:36.475Z,67.29
2023-04-01T19:33:02.768Z,67.33
2023-04-01T19:35:29.039Z,67.31
2023-04-01T19:37:55.383Z,67.23
2023-04-01T19:40:21.718Z,67.15
2023-04-01T19:42:48.142Z,67.12
2023-04-01T19:45:14.525Z,67.17
2023-04-01T19:47:40.882Z,66.93
2023-04-01T19:50:07.226Z,66.67
2023-04-01T19:52:33.574Z,66.27
2023-04-01T19:54:59.893Z,66.18
2023-04-01T19:57:28.545Z,65.88
2023-04-01T19:59:54.785Z,66.19
2023-04-01T20:02:21.166Z,65.98
2023-04-01T20:04:47.516Z,65.38
2023-04-01T20:07:13.907Z,65.30
2023-04-01T20:09:40.314Z,65.48
2023-04-01T20:12:06.725Z,65.03
2023-04-01T20:14:33.073Z,64.68
2023-04-01T20:16:59.413Z,64.50
2023-04-01T20:19:25.876Z,64.29
2023-04-01T20:21:52.214Z,64.00
2023-04-01T20:24:18.627Z,64.07
2023-04-01T20:26:44.985Z,63.93
2023-04-01T20:29:11.293Z,63.94
2023-04-01T20:31:37.693Z,63.96
2023-04-01T20:34:03.993Z,63.85
2023-04-01T20:36:31.288Z,64.00
2023-04-01T20:38:57.630Z,64.05
2023-04-01T20:41:23.969Z,63.87
2023-04-01T20:43:50.366Z,64.04
2023-04-01T20:46:16.779Z,64.14
2023-04-01T20:48:43.078Z,64.06
2023-04-01T20:51:09.712Z,63.95
2023-04-01T20:53:36.079Z,63.89
2023-04-01T20:56:02.433Z,63.91
2023-04-01T20:58:28.763Z,64.26
2023-04-01T21:00:55.119Z,64.19
2023-04-01T21:03:21.466Z,64.26
2023-04-01T21:05:47.844Z,64.39
2023-04-01T21:08:15.255Z,63.88
2023-04-01T21:10:44.290Z,64.10
2023-04-01T21:13:10.708Z,64.15
2023-04-01T21:15:37.248Z,64.30
2023-04-01T21:18:03.487Z,64.19
2023-04-01T21:20:29.778Z,64.03
2023-04-01T21:22:56.089Z,64.29
2023-04-01T21:25:22.512Z,64.32
2023-04-01T21:27:48.881Z,64.10
2023-04-01T21:30:15.333Z,64.37
2023-04-01T21:32:41.708Z,64.31
2023-04-01T21:35:08.101Z,64.26
2023-04-01T21:37:34.433Z,64.05
2023-04-01T21:40:00.766Z,64.00
2023-04-01T21:42:27.160Z,64.13
2023-04-01T21:44:53.514Z,63.90
2023-04-01T21:47:19.908Z,63.63
2023-04-01T21:49:46.197Z,63.40
2023-04-01T21:52:12.554Z,63.44
2023-04-01T21:54:38.929Z,63.53
2023-04-01T21:57:05.393Z,63.41
2023-04-01T21:59:31.592Z,63.51
2023-04-01T22:01:57.907Z,63.26
2023-04-01T22:04:24.629Z,63.28
2023-04-01T22:06:50.631Z,63.22
2023-04-01T22:09:17.002Z,63.53
2023-04-01T22:11:43.321Z,63.44
2023-04-01T22:14:09.701Z,63.79
2023-04-01T22:16:36.096Z,63.86
2023-04-01T22:19:02.394Z,63.77
2023-04-01T22:21:28.715Z,63.85
2023-04-01T22:23:55.138Z,63.53
2023-04-01T22:26:21.439Z,63.61
2023-04-01T22:28:47.816Z,63.88
2023-04-01T22:31:14.182Z,63.70
2023-04-01T22:33:40.522Z,64.01
2023-04-01T22:36:06.848Z,64.05
2023-04-01T22:38:33.230Z,64.07
2023-04-01T22:40:59.585Z,64.42
2023-04-01T22:43:25.969Z,64.85
2023-04-01T22:45:52.295Z,64.60
2023-04-01T22:48:18.659Z,64.71
2023-04-01T22:50:45.003Z,64.88
2023-04-01T22:53:11.415Z,64.91
2023-04-01T22:55:37.727Z,64.69
2023-04-01T22:58:04.074Z,64.86
2023-04-01T23:00:30.390Z,64.63
2023-04-01T23:02:56.847Z,64.68
2023-04-01T23:05:23.111Z,64.67
2023-04-01T23:07:49.495Z,64.59
2023-04-01T23:10:15.860Z,64.75
2023-04-01T23:12:42.286Z,64.80
2023-04-01T23:15:08.554Z,64.76
2023-04-01T23:17:35.003Z,64.66
2023-04-01T23:20:01.239Z,64.55
2023-04-01T23:22:27.598Z,64.69
2023-04-01T23:24:53.949Z,64.66
2023-04-01T23:27:20.336Z,64.54
2023-04-01T23:29:46.674Z,64.37
2023-04-01T23:32:13.051Z,64.38
2023-04-01T23:34:39.406Z,64.37
2023-04-01T23:37:05.819Z,64.53
2023-04-01T23:39:32.160Z,64.59
2023-04-01T23:41:58.516Z,64.57
2023-04-01T23:44:24.972Z,64.63
2023-04-01T23:46:51.338Z,64.77
2023-04-01T23:49:17.714Z,64.63
2023-04-01T23:51:44.072Z,64.44
2023-04-01T23:54:10.444Z,64.51
2023-04-01T23:56:36.758Z,64.24
2023-04-01T23:59:03.118Z,64.25
